Time;durP1;ratioP1;P1;durP2;ratioP2;P2;SDS_P1;SDS_P2;PMS_P1;PMS_P2;Temp;Humidity;BMP_temperature;BMP_pressure;BME280_temperature;BME280_humidity;BME280_pressure;Samples;Min_cycle;Max_cycle;Signal;HPM_P1;HPM_P2
2023/02/18 00:00:30;;;;;;;37.20;23.63;;;;;;;14.90;60.99;102168.97;5001832;28;124447;-69
2023/02/18 00:02:58;;;;;;;36.13;23.38;;;;;;;14.89;61.12;102161.88;4973603;28;123751;-69
2023/02/18 00:05:25;;;;;;;39.90;23.88;;;;;;;14.89;60.97;102156.53;4969281;28;110108;-69
2023/02/18 00:07:52;;;;;;;37.17;23.60;;;;;;;14.89;61.18;102153.88;4970495;28;109921;-69
2023/02/18 00:10:19;;;;;;;39.65;24.75;;;;;;;14.89;61.03;102155.69;4968881;28;124357;-69
2023/02/18 00:12:46;;;;;;;36.67;22.77;;;;;;;14.88;61.09;102154.81;4975073;28;123935;-69
2023/02/18 00:15:14;;;;;;;37.80;24.48;;;;;;;14.88;61.20;102154.81;4969483;28;109660;-70
2023/02/18 00:17:41;;;;;;;36.53;23.35;;;;;;;14.88;61.25;102144.16;4969300;28;110851;-70
2023/02/18 00:20:09;;;;;;;38.55;23.15;;;;;;;14.89;61.15;102134.34;4964398;28;124200;-69
2023/02/18 00:22:36;;;;;;;40.08;24.10;;;;;;;14.88;61.00;102138.81;4969842;28;124596;-69
2023/02/18 00:25:03;;;;;;;37.55;23.77;;;;;;;14.88;61.20;102136.16;4973067;28;109303;-69
2023/02/18 00:27:30;;;;;;;37.95;24.00;;;;;;;14.88;61.09;102137.91;4972717;28;110449;-69
2023/02/18 00:29:58;;;;;;;36.63;23.33;;;;;;;14.87;61.19;102142.41;4970415;28;124752;-69
2023/02/18 00:32:25;;;;;;;39.88;23.13;;;;;;;14.86;61.25;102135.34;4971703;28;124332;-70
2023/02/18 00:34:53;;;;;;;37.92;22.85;;;;;;;14.87;61.33;102131.72;4971485;28;109000;-69
2023/02/18 00:37:20;;;;;;;39.70;23.10;;;;;;;14.86;61.38;102130.00;4967123;28;109848;-70
2023/02/18 00:39:47;;;;;;;40.42;23.13;;;;;;;14.87;61.28;102126.41;5005733;28;123028;-69
2023/02/18 00:42:15;;;;;;;39.40;22.67;;;;;;;14.87;61.28;102120.19;4981389;28;123374;-70
2023/02/18 00:44:42;;;;;;;37.05;23.90;;;;;;;14.87;61.40;102115.72;4965955;28;110051;-70
2023/02/18 00:47:10;;;;;;;43.30;25.00;;;;;;;14.87;61.43;102115.72;4979578;28;109023;-69
2023/02/18 00:49:37;;;;;;;43.35;24.98;;;;;;;14.89;61.25;102119.19;4968349;28;124232;-69
2023/02/18 00:52:04;;;;;;;40.85;25.63;;;;;;;14.88;61.34;102114.81;4972708;28;123477;-69
2023/02/18 00:54:33;;;;;;;47.00;26.92;;;;;;;14.89;61.46;102113.84;4970933;28;109805;-70
2023/02/18 00:57:00;;;;;;;45.20;26.45;;;;;;;14.88;61.20;102103.25;4972989;28;110441;-68
2023/02/18 00:59:28;;;;;;;45.78;26.70;;;;;;;14.86;61.25;102108.66;4967024;28;124246;-69
2023/02/18 01:01:56;;;;;;;46.00;27.65;;;;;;;14.87;61.44;102110.38;4972347;28;122843;-70
2023/02/18 01:04:23;;;;;;;47.08;26.88;;;;;;;14.88;61.43;102101.47;4972723;28;108051;-70
2023/02/18 01:06:51;;;;;;;46.78;28.52;;;;;;;14.86;61.50;102098.00;4970852;28;109991;-69
2023/02/18 01:09:18;;;;;;;48.65;28.42;;;;;;;14.88;61.43;102096.13;4970190;28;124560;-68
2023/02/18 01:11:45;;;;;;;44.17;27.55;;;;;;;14.87;61.55;102094.38;5003367;28;122610;-69
2023/02/18 01:14:13;;;;;;;43.55;26.17;;;;;;;14.86;61.54;102098.00;4981570;28;108627;-69
2023/02/18 01:16:40;;;;;;;45.38;28.08;;;;;;;14.87;61.46;102089.06;4967243;28;110355;-69
2023/02/18 01:19:07;;;;;;;46.40;26.83;;;;;;;14.88;61.58;102085.47;4972996;28;123728;-69
2023/02/18 01:21:37;;;;;;;46.92;26.88;;;;;;;14.90;61.55;102088.03;4972927;28;122960;-69
2023/02/18 01:24:05;;;;;;;45.88;27.75;;;;;;;14.89;61.64;102092.50;4964631;28;108268;-69
2023/02/18 01:26:34;;;;;;;46.00;26.30;;;;;;;14.89;61.50;102087.19;4970838;28;110367;-69
2023/02/18 01:29:02;;;;;;;50.20;27.23;;;;;;;14.90;61.68;102082.69;4965889;28;124293;-70
2023/02/18 01:31:29;;;;;;;47.20;27.90;;;;;;;14.89;61.78;102076.50;4968054;28;123211;-69
2023/02/18 01:33:58;;;;;;;49.08;27.63;;;;;;;14.90;61.65;102072.03;4970326;28;108115;-69
2023/02/18 01:36:28;;;;;;;48.22;27.85;;;;;;;14.90;61.67;102072.94;4967016;28;108275;-71
2023/02/18 01:38:56;;;;;;;44.47;26.55;;;;;;;14.91;61.77;102068.44;4966409;28;124617;-70
2023/02/18 01:41:23;;;;;;;47.72;27.08;;;;;;;14.92;61.76;102076.38;4984078;28;123650;-69
2023/02/18 01:44:17;;;;;;;46.80;27.63;;;;;;;14.90;61.85;102067.59;4981478;28;109142;-69
2023/02/18 01:46:45;;;;;;;48.88;27.65;;;;;;;14.90;61.89;102072.94;4960026;28;109819;-70
2023/02/18 01:49:18;;;;;;;48.03;27.73;;;;;;;14.89;61.99;102065.84;4969672;28;123846;-69
2023/02/18 01:51:50;;;;;;;46.65;26.42;;;;;;;14.89;61.87;102071.19;4969167;28;124339;-69
2023/02/18 01:54:32;;;;;;;45.50;25.55;;;;;;;14.89;61.92;102070.31;4969944;28;108273;-69
2023/02/18 01:57:08;;;;;;;48.17;25.88;;;;;;;14.88;61.92;102072.13;4971619;28;109020;-69
2023/02/18 01:59:41;;;;;;;51.17;26.67;;;;;;;14.85;62.07;102069.59;4983034;28;122888;-69
2023/02/18 02:02:12;;;;;;;46.03;24.88;;;;;;;14.83;62.04;102055.44;4971165;28;123986;-69
2023/02/18 02:04:41;;;;;;;41.58;24.83;;;;;;;14.82;62.11;102067.03;4968802;28;109213;-69
2023/02/18 02:07:09;;;;;;;47.67;24.08;;;;;;;14.79;62.14;102060.03;4968504;28;110285;-69
2023/02/18 02:09:38;;;;;;;44.42;24.00;;;;;;;14.77;62.26;102050.38;4970149;28;124174;-69
2023/02/18 02:12:21;;;;;;;41.60;23.08;;;;;;;14.74;62.36;102056.69;4987351;28;123635;-68
2023/02/18 02:14:54;;;;;;;45.83;23.35;;;;;;;14.73;62.51;102051.44;4970451;28;109203;-69
2023/02/18 02:17:27;;;;;;;40.60;22.27;;;;;;;14.72;62.55;102049.72;4972091;28;109639;-69
2023/02/18 02:20:23;;;;;;;45.03;22.25;;;;;;;14.70;62.53;102048.91;4968597;28;123609;-69
2023/02/18 02:23:12;;;;;;;41.35;22.38;;;;;;;14.67;62.59;102049.03;4983238;28;124377;-70
2023/02/18 02:25:51;;;;;;;39.00;20.85;;;;;;;14.63;62.88;102042.09;4969468;28;109804;-70
2023/02/18 02:28:37;;;;;;;38.15;21.27;;;;;;;14.62;62.88;102037.69;4971032;28;110479;-69
2023/02/18 02:31:31;;;;;;;38.95;19.35;;;;;;;14.59;62.87;102031.56;4969362;28;124115;-68
2023/02/18 02:34:04;;;;;;;34.58;18.90;;;;;;;14.58;63.02;102018.31;4960433;28;124744;-69
2023/02/18 02:37:05;;;;;;;33.70;18.38;;;;;;;14.56;62.89;102015.69;4983807;28;109188;-70
2023/02/18 02:39:42;;;;;;;36.65;18.60;;;;;;;14.54;63.23;102019.31;4981423;28;109419;-70
2023/02/18 02:42:56;;;;;;;30.40;17.60;;;;;;;14.51;63.15;102012.34;4967919;28;124568;-69
2023/02/18 02:45:32;;;;;;;32.75;17.50;;;;;;;14.50;63.12;102010.59;4984456;28;122904;-69
2023/02/18 02:48:05;;;;;;;30.17;15.85;;;;;;;14.48;63.27;101996.47;4969083;28;108507;-70
2023/02/18 02:50:42;;;;;;;31.58;16.52;;;;;;;14.47;63.57;101994.75;4964206;28;109007;-69
2023/02/18 02:53:21;;;;;;;28.25;15.60;;;;;;;14.47;63.38;101984.09;4982788;28;123669;-70
2023/02/18 02:55:48;;;;;;;28.17;14.80;;;;;;;14.45;63.51;101974.41;4967861;28;122966;-69
2023/02/18 02:58:18;;;;;;;29.42;15.23;;;;;;;14.46;63.30;101976.16;4968490;28;108450;-69
2023/02/18 03:01:01;;;;;;;30.50;16.15;;;;;;;14.46;63.73;101977.00;4971472;28;109314;-69
2023/02/18 03:03:38;;;;;;;26.10;14.50;;;;;;;14.46;63.65;101966.34;4970164;28;123816;-69
2023/02/18 03:06:33;;;;;;;29.17;15.63;;;;;;;14.45;63.61;101959.28;4982528;28;126541;-69
2023/02/18 03:09:29;;;;;;;31.48;16.05;;;;;;;14.42;63.64;101956.75;4978521;28;109929;-69
2023/02/18 03:12:11;;;;;;;27.90;15.07;;;;;;;14.41;63.58;101941.72;5000589;28;109528;-68
2023/02/18 03:15:19;;;;;;;27.25;15.15;;;;;;;14.39;63.74;101938.22;4966544;28;124305;-69
2023/02/18 03:17:59;;;;;;;27.85;15.38;;;;;;;14.39;63.83;101943.53;4971004;28;122916;-69
2023/02/18 03:20:36;;;;;;;24.50;14.07;;;;;;;14.37;63.88;101929.41;4999350;28;108973;-70
2023/02/18 03:23:08;;;;;;;25.60;14.60;;;;;;;14.37;63.95;101918.75;4968375;28;109462;-70
2023/02/18 03:25:37;;;;;;;24.15;13.98;;;;;;;14.36;64.02;101906.38;4982158;28;123222;-70
2023/02/18 03:28:10;;;;;;;23.00;13.30;;;;;;;14.37;64.11;101902.78;5004337;28;123039;-70
2023/02/18 03:30:46;;;;;;;20.48;12.73;;;;;;;14.36;63.91;101906.38;4974938;28;110135;-70
2023/02/18 03:33:19;;;;;;;20.33;12.82;;;;;;;14.36;64.03;101901.06;4983487;28;109474;-70
2023/02/18 03:35:48;;;;;;;18.70;12.00;;;;;;;14.36;64.06;101906.38;4966692;28;124104;-70
2023/02/18 03:38:34;;;;;;;17.83;11.77;;;;;;;14.35;64.05;101899.31;4963937;28;125327;-70
2023/02/18 03:41:01;;;;;;;15.43;9.77;;;;;;;14.35;63.98;101893.97;4966648;28;109229;-70
2023/02/18 03:43:30;;;;;;;16.15;9.43;;;;;;;14.32;64.02;101884.34;4965924;28;108100;-72
2023/02/18 03:45:59;;;;;;;13.98;9.27;;;;;;;14.30;64.18;101885.34;4964649;28;124191;-71
2023/02/18 03:48:26;;;;;;;12.65;8.30;;;;;;;14.29;64.24;101884.44;4971895;28;123413;-72
2023/02/18 03:50:53;;;;;;;12.23;8.38;;;;;;;14.29;64.24;101878.28;4967560;28;109481;-71
2023/02/18 03:53:20;;;;;;;13.55;8.35;;;;;;;14.27;64.15;101869.47;4996657;28;107995;-71
2023/02/18 03:55:48;;;;;;;11.30;8.38;;;;;;;14.27;64.29;101866.81;4980660;28;123247;-70
2023/02/18 03:58:15;;;;;;;12.25;7.45;;;;;;;14.26;64.34;101867.72;4969442;28;123944;-71
2023/02/18 04:00:43;;;;;;;9.88;6.80;;;;;;;14.24;64.34;101864.28;4972587;28;109183;-71
2023/02/18 04:03:10;;;;;;;10.43;6.63;;;;;;;14.24;64.30;101870.50;4969776;28;109296;-71
2023/02/18 04:05:37;;;;;;;8.70;6.63;;;;;;;14.24;64.43;101858.94;4969414;28;124201;-71
2023/02/18 04:08:05;;;;;;;10.95;6.60;;;;;;;14.24;64.30;101864.28;4964434;28;124522;-71
2023/02/18 04:10:32;;;;;;;8.52;5.50;;;;;;;14.23;64.50;101857.22;4967829;28;109224;-71
2023/02/18 04:12:59;;;;;;;8.32;5.60;;;;;;;14.23;64.53;101851.91;4973237;28;108935;-71
2023/02/18 04:15:26;;;;;;;8.82;5.55;;;;;;;14.22;64.55;101845.69;4971202;28;124640;-71
2023/02/18 04:17:54;;;;;;;8.15;5.30;;;;;;;14.21;64.57;101844.81;4970332;28;123996;-71
2023/02/18 04:20:21;;;;;;;7.32;5.05;;;;;;;14.22;64.37;101845.69;4965199;28;110787;-70
2023/02/18 04:22:48;;;;;;;7.72;4.72;;;;;;;14.21;64.54;101844.81;4966085;28;110016;-72
2023/02/18 04:25:15;;;;;;;6.68;4.45;;;;;;;14.19;64.64;101838.69;4968561;28;124903;-71
2023/02/18 04:27:43;;;;;;;6.15;4.30;;;;;;;14.18;64.65;101837.00;4963133;28;124223;-70
2023/02/18 04:30:10;;;;;;;6.88;4.43;;;;;;;14.18;64.70;101834.31;4972247;28;109833;-70
2023/02/18 04:32:38;;;;;;;7.13;4.10;;;;;;;14.17;64.66;101835.25;4967459;28;109336;-71
2023/02/18 04:35:06;;;;;;;7.32;4.10;;;;;;;14.18;64.63;101836.09;4969401;28;124820;-70
2023/02/18 04:37:35;;;;;;;6.38;4.40;;;;;;;14.17;64.59;101827.25;4969200;28;123755;-70
2023/02/18 04:40:03;;;;;;;6.18;3.67;;;;;;;14.17;64.74;101832.59;4965796;28;109184;-70
2023/02/18 04:42:30;;;;;;;6.18;3.60;;;;;;;14.17;64.74;101837.91;4968247;28;108863;-69
2023/02/18 04:44:57;;;;;;;5.40;3.80;;;;;;;14.17;64.79;101831.72;4965753;28;124346;-69
2023/02/18 04:47:25;;;;;;;5.30;3.50;;;;;;;14.17;64.81;101826.41;4964271;28;123900;-70
2023/02/18 04:49:52;;;;;;;5.50;3.25;;;;;;;14.17;64.79;101816.59;4988038;28;107447;-69
2023/02/18 04:52:20;;;;;;;4.63;2.90;;;;;;;14.16;64.73;101825.50;4967272;28;108622;-69
2023/02/18 04:54:48;;;;;;;4.97;3.17;;;;;;;14.16;64.72;101820.19;4971810;28;124364;-70
2023/02/18 04:57:16;;;;;;;4.32;2.83;;;;;;;14.14;64.60;101822.03;4987093;28;123912;-70
2023/02/18 04:59:43;;;;;;;4.18;2.97;;;;;;;14.13;64.83;101815.00;4967031;28;109463;-71
2023/02/18 05:02:11;;;;;;;4.32;3.00;;;;;;;14.13;64.84;101825.66;4968808;28;109213;-70
2023/02/18 05:04:38;;;;;;;4.97;2.75;;;;;;;14.13;64.55;101809.69;4963646;28;124690;-70
2023/02/18 05:07:05;;;;;;;5.03;2.65;;;;;;;14.11;64.61;101816.88;4967400;28;124182;-70
2023/02/18 05:09:32;;;;;;;4.25;2.38;;;;;;;14.12;64.84;101823.91;4971888;28;109474;-71
2023/02/18 05:12:00;;;;;;;4.45;2.60;;;;;;;14.10;64.86;101815.13;4969543;28;110373;-70
2023/02/18 05:14:27;;;;;;;3.72;2.45;;;;;;;14.12;64.76;101807.94;4971638;28;124054;-71
2023/02/18 05:16:54;;;;;;;3.28;2.10;;;;;;;14.11;64.76;101795.56;4972764;28;122928;-71
2023/02/18 05:19:21;;;;;;;3.97;2.40;;;;;;;14.11;64.94;101806.22;4971432;28;109388;-71
2023/02/18 05:21:49;;;;;;;3.50;2.30;;;;;;;14.10;64.85;101809.81;4973703;28;108594;-71
2023/02/18 05:24:16;;;;;;;4.18;2.20;;;;;;;14.09;64.80;101800.09;4966750;28;124184;-71
2023/02/18 05:26:48;;;;;;;4.00;2.30;;;;;;;14.08;64.97;101795.69;4969582;28;123746;-72
2023/02/18 05:29:15;;;;;;;3.33;2.10;;;;;;;14.07;64.78;101783.31;4970803;28;109195;-72
2023/02/18 05:31:42;;;;;;;3.08;2.03;;;;;;;14.06;65.01;101789.56;4973253;28;108904;-71
2023/02/18 05:34:09;;;;;;;3.70;2.13;;;;;;;14.06;64.94;101792.22;4972872;28;124523;-72
2023/02/18 05:36:37;;;;;;;3.42;1.95;;;;;;;14.05;64.96;101785.16;4972977;28;123960;-72
2023/02/18 05:39:04;;;;;;;3.38;2.33;;;;;;;14.04;64.93;101788.78;4970573;28;108341;-72
2023/02/18 05:41:31;;;;;;;3.63;2.22;;;;;;;14.03;64.92;101792.34;4968514;28;108656;-72
2023/02/18 05:46:44;;;;;;;4.47;2.40;;;;;;;14.00;65.03;101771.19;4966497;28;124581;-71
2023/02/18 05:49:13;;;;;;;3.08;2.00;;;;;;;14.01;65.16;101772.91;4971678;28;109320;-71
2023/02/18 05:51:41;;;;;;;3.90;2.30;;;;;;;13.98;65.31;101778.41;4969065;28;109224;-71
2023/02/18 05:54:08;;;;;;;3.38;2.05;;;;;;;14.00;65.14;101760.56;4966668;28;123907;-71
2023/02/18 05:56:35;;;;;;;3.35;2.08;;;;;;;13.98;65.09;101757.09;4965218;28;124050;-71
2023/02/18 05:59:03;;;;;;;3.05;2.17;;;;;;;13.98;65.16;101763.28;4967629;28;109763;-71
2023/02/18 06:01:30;;;;;;;2.92;1.90;;;;;;;14.00;65.05;101756.06;4986230;28;108933;-72
2023/02/18 06:03:57;;;;;;;4.32;2.28;;;;;;;13.98;65.12;101741.97;4972222;28;124449;-72
2023/02/18 06:06:24;;;;;;;3.50;2.40;;;;;;;13.98;65.04;101749.09;5003696;28;123048;-71
2023/02/18 06:08:51;;;;;;;3.13;2.10;;;;;;;13.98;65.22;101759.75;4965840;28;109701;-71
2023/02/18 06:11:19;;;;;;;3.63;2.20;;;;;;;13.97;65.24;101750.03;4970873;28;109547;-71
2023/02/18 06:13:46;;;;;;;3.47;2.40;;;;;;;13.97;65.07;101755.34;4968685;28;124092;-71
2023/02/18 06:16:13;;;;;;;3.90;2.15;;;;;;;13.96;65.06;101758.97;4965789;28;121660;-71
2023/02/18 06:18:41;;;;;;;3.70;2.50;;;;;;;13.95;65.29;101762.53;4984609;28;108915;-71
2023/02/18 06:21:08;;;;;;;3.90;2.60;;;;;;;13.95;65.22;101763.41;4969601;28;108309;-71
2023/02/18 06:23:35;;;;;;;4.07;3.10;;;;;;;13.96;65.12;101761.63;4969197;28;125261;-71
2023/02/18 06:26:03;;;;;;;3.85;2.63;;;;;;;13.95;65.12;101749.22;4970353;28;124104;-72
2023/02/18 06:28:30;;;;;;;3.85;2.55;;;;;;;13.96;65.20;101758.97;4968055;28;109639;-72
2023/02/18 06:30:57;;;;;;;4.28;2.92;;;;;;;13.96;65.29;101759.81;4973313;28;109349;-71
2023/02/18 06:33:24;;;;;;;4.32;2.80;;;;;;;13.97;65.35;101760.69;4968010;28;124481;-71
2023/02/18 06:36:00;;;;;;;4.97;3.20;;;;;;;13.97;65.22;101750.03;4965313;28;124797;-72
2023/02/18 06:38:29;;;;;;;4.90;3.38;;;;;;;13.97;65.36;101755.34;4964795;28;109430;-71
2023/02/18 06:40:56;;;;;;;5.47;3.45;;;;;;;13.97;65.21;101750.03;4964760;28;110027;-72
2023/02/18 06:43:23;;;;;;;6.20;4.10;;;;;;;13.97;65.32;101750.88;4988059;28;123190;-73
2023/02/18 06:45:51;;;;;;;5.60;4.18;;;;;;;13.97;65.40;101750.03;4964747;28;123976;-72
2023/02/18 06:48:19;;;;;;;6.53;4.22;;;;;;;13.97;65.34;101745.56;4966610;28;110586;-72
2023/02/18 06:50:47;;;;;;;5.80;3.90;;;;;;;13.97;65.40;101739.38;4967265;28;109637;-72
2023/02/18 06:53:16;;;;;;;5.97;3.88;;;;;;;13.97;65.32;101744.69;4963139;28;124517;-71
2023/02/18 06:55:44;;;;;;;6.53;4.05;;;;;;;13.95;65.21;101749.22;4964780;28;123917;-72
2023/02/18 06:58:13;;;;;;;7.07;4.70;;;;;;;13.95;65.23;101746.56;4971506;28;109665;-74
2023/02/18 07:00:42;;;;;;;6.22;4.30;;;;;;;13.95;65.35;101751.88;4968590;28;108988;-72
2023/02/18 07:03:12;;;;;;;7.50;4.72;;;;;;;13.95;65.14;101751.88;4955605;28;124500;-72
2023/02/18 07:05:40;;;;;;;7.43;4.93;;;;;;;13.94;65.17;101761.69;4998001;28;124296;-72
2023/02/18 07:08:08;;;;;;;7.63;5.00;;;;;;;13.94;65.27;101760.84;4968635;28;109499;-71
2023/02/18 07:10:35;;;;;;;8.52;6.05;;;;;;;13.93;65.45;101769.75;4964106;28;109216;-72
2023/02/18 07:13:03;;;;;;;9.32;6.10;;;;;;;13.92;65.24;101765.34;4968494;28;124177;-71
2023/02/18 07:15:30;;;;;;;9.52;6.20;;;;;;;13.93;65.18;101769.75;4964073;28;123853;-71
2023/02/18 07:17:58;;;;;;;9.68;6.28;;;;;;;13.93;65.31;101764.41;4969791;28;109639;-71
2023/02/18 07:20:26;;;;;;;10.50;6.90;;;;;;;13.90;65.09;101760.09;4962585;28;109237;-71
2023/02/18 07:22:53;;;;;;;9.13;7.20;;;;;;;13.89;65.23;101760.16;4969072;28;123742;-71
2023/02/18 07:25:21;;;;;;;11.75;7.28;;;;;;;13.87;65.22;101754.91;4962588;28;122470;-71
2023/02/18 07:27:50;;;;;;;10.02;6.78;;;;;;;13.87;65.17;101756.69;4981132;28;108408;-71
2023/02/18 07:30:19;;;;;;;8.48;5.07;;;;;;;13.85;65.08;101772.75;4963369;28;109371;-71
2023/02/18 07:32:46;;;;;;;7.72;5.13;;;;;;;13.83;65.13;101770.13;4969109;28;124145;-70
2023/02/18 07:35:15;;;;;;;7.70;4.85;;;;;;;13.81;65.17;101777.34;4966495;28;124258;-70
2023/02/18 07:37:47;;;;;;;7.38;4.97;;;;;;;13.79;65.07;101771.22;4966713;28;110232;-69
2023/02/18 07:40:18;;;;;;;8.25;4.60;;;;;;;13.77;65.00;101781.06;4970671;28;108471;-70
2023/02/18 07:42:46;;;;;;;6.90;4.32;;;;;;;13.75;65.33;101788.25;4968363;28;124841;-71
2023/02/18 07:45:14;;;;;;;5.72;4.07;;;;;;;13.73;64.83;101784.81;4968914;28;123900;-70
2023/02/18 07:47:41;;;;;;;7.35;4.63;;;;;;;13.71;64.80;101786.66;4969414;28;108096;-70
2023/02/18 07:50:09;;;;;;;8.80;5.15;;;;;;;13.69;64.87;101788.50;4959636;28;109027;-70
2023/02/18 07:52:36;;;;;;;8.95;5.03;;;;;;;13.67;64.91;101789.50;4968018;28;124477;-70
2023/02/18 07:55:04;;;;;;;8.73;5.38;;;;;;;13.66;64.94;101793.97;4969822;28;124081;-71
2023/02/18 07:57:31;;;;;;;8.63;5.28;;;;;;;13.65;64.86;101792.22;4966338;28;109358;-71
2023/02/18 07:59:58;;;;;;;9.25;5.63;;;;;;;13.62;64.73;101779.94;4971114;28;109344;-72
2023/02/18 08:02:26;;;;;;;8.55;5.70;;;;;;;13.62;64.86;101792.38;4967749;28;124064;-72
2023/02/18 08:04:53;;;;;;;9.82;6.28;;;;;;;13.61;64.85;101790.63;4995000;28;124287;-72
2023/02/18 08:07:22;;;;;;;11.27;6.13;;;;;;;13.61;64.78;101787.97;4997675;28;109830;-72
2023/02/18 08:09:49;;;;;;;11.23;6.60;;;;;;;13.61;64.79;101801.28;4944850;28;108876;-72
2023/02/18 08:12:17;;;;;;;10.13;6.35;;;;;;;13.61;64.71;101790.63;4967684;28;124182;-72
2023/02/18 08:16:16;;;;;;;12.13;7.28;;;;;;;13.58;64.59;101794.31;4955016;28;123970;-71
2023/02/18 08:18:56;;;;;;;12.52;6.80;;;;;;;13.57;64.77;101799.69;4978893;28;109903;-72
2023/02/18 08:21:25;;;;;;;11.23;7.20;;;;;;;13.56;64.64;101793.50;4966744;28;108862;-72
2023/02/18 08:23:53;;;;;;;13.43;7.50;;;;;;;13.57;64.68;101799.69;4968298;28;124074;-73
2023/02/18 08:26:20;;;;;;;13.07;8.25;;;;;;;13.61;64.66;101798.63;4968639;28;123462;-73
2023/02/18 08:28:47;;;;;;;11.68;8.02;;;;;;;13.63;64.69;101791.44;4963887;28;110175;-73
2023/02/18 08:31:24;;;;;;;14.35;8.32;;;;;;;13.64;64.54;101779.88;4994596;28;110762;-73
2023/02/18 08:33:53;;;;;;;12.57;7.90;;;;;;;13.65;64.56;101784.25;4967700;28;123924;-74
2023/02/18 08:36:21;;;;;;;12.35;7.07;;;;;;;13.67;64.52;101801.00;4961820;28;123597;-72
2023/02/18 08:38:49;;;;;;;13.75;7.85;;;;;;;13.69;64.46;101793.81;4962450;28;109650;-73
2023/02/18 08:41:19;;;;;;;15.18;7.65;;;;;;;13.71;64.36;101797.31;4963083;28;108931;-73
2023/02/18 08:44:41;;;;;;;13.27;6.63;;;;;;;13.71;64.32;101797.31;4966608;28;123978;-72
2023/02/18 08:47:21;;;;;;;13.05;5.60;;;;;;;13.72;64.23;101793.72;4970901;28;123755;-73
2023/02/18 08:50:09;;;;;;;13.23;6.13;;;;;;;13.71;64.06;101791.09;4981581;28;108168;-73
2023/02/18 08:52:36;;;;;;;10.65;5.80;;;;;;;13.71;64.03;101786.66;4979273;28;109084;-73
2023/02/18 08:55:05;;;;;;;12.60;5.97;;;;;;;13.72;64.17;101798.16;4967248;28;124159;-72
2023/02/18 08:57:32;;;;;;;11.40;5.20;;;;;;;13.73;63.92;101790.13;4967772;28;123819;-71
2023/02/18 08:59:59;;;;;;;11.23;5.45;;;;;;;13.75;63.84;101798.91;4972466;28;109309;-72
2023/02/18 09:02:28;;;;;;;12.10;4.88;;;;;;;13.76;63.68;101795.28;4968435;28;107214;-71
2023/02/18 09:04:55;;;;;;;11.57;4.70;;;;;;;13.77;63.70;101790.88;4969147;28;124159;-72
2023/02/18 09:07:22;;;;;;;14.80;4.88;;;;;;;13.77;63.50;101797.03;4964723;28;124536;-73
2023/02/18 09:09:49;;;;;;;10.50;4.60;;;;;;;13.78;63.49;101793.44;4970989;28;109022;-73
2023/02/18 09:12:17;;;;;;;9.10;5.00;;;;;;;13.79;63.46;101789.84;4987652;28;108816;-73
2023/02/18 09:14:46;;;;;;;12.98;5.15;;;;;;;13.80;63.38;101796.88;4968672;28;123981;-73
2023/02/18 09:17:14;;;;;;;11.02;4.68;;;;;;;13.81;63.28;101797.78;4966867;28;124350;-73
2023/02/18 09:19:41;;;;;;;12.68;4.50;;;;;;;13.80;63.43;101802.22;4970862;28;108885;-73
2023/02/18 09:22:08;;;;;;;15.93;5.00;;;;;;;13.80;63.37;101791.56;4969013;28;109926;-73
2023/02/18 09:24:37;;;;;;;12.15;4.78;;;;;;;13.79;63.33;101800.50;4958600;28;123838;-73
2023/02/18 09:27:05;;;;;;;13.95;5.28;;;;;;;13.80;63.29;101802.22;4960762;28;124331;-73
2023/02/18 09:29:32;;;;;;;10.63;4.65;;;;;;;13.79;63.12;101795.19;5000376;28;109182;-73
2023/02/18 09:32:00;;;;;;;10.73;5.32;;;;;;;13.79;63.22;101795.19;4955393;28;108976;-74
2023/02/18 09:34:28;;;;;;;12.02;4.63;;;;;;;13.76;63.19;101789.97;4967446;28;125221;-74
2023/02/18 09:36:55;;;;;;;11.18;4.55;;;;;;;13.74;62.90;101791.84;4966202;28;122999;-74
2023/02/18 09:39:22;;;;;;;10.82;4.75;;;;;;;13.70;63.03;101776.94;4956662;28;109405;-73
2023/02/18 09:41:55;;;;;;;11.68;4.55;;;;;;;13.66;62.99;101783.31;4968292;28;109394;-73
2023/02/18 09:44:32;;;;;;;11.68;4.10;;;;;;;13.63;63.11;101789.63;4985344;28;123706;-73
2023/02/18 09:47:05;;;;;;;11.20;4.47;;;;;;;13.62;63.05;101787.06;4970254;28;123986;-70
2023/02/18 09:49:40;;;;;;;8.23;4.07;;;;;;;13.60;63.06;101804.91;4971488;28;109472;-72
2023/02/18 09:52:12;;;;;;;12.77;3.80;;;;;;;13.59;63.01;101793.34;4964808;28;109168;-72
2023/02/18 09:54:40;;;;;;;15.32;4.20;;;;;;;13.58;62.99;101806.72;4957597;28;123898;-72
2023/02/18 09:57:21;;;;;;;8.43;3.67;;;;;;;13.56;63.03;101808.59;4957587;28;125537;-74
2023/02/18 10:00:04;;;;;;;9.15;3.65;;;;;;;13.56;62.96;101798.84;4954069;28;109703;-73
2023/02/18 10:02:40;;;;;;;13.02;4.35;;;;;;;13.56;63.08;101813.91;4955891;28;111106;-74
2023/02/18 10:05:14;;;;;;;10.23;3.70;;;;;;;13.56;62.90;101803.25;4953426;28;124087;-73
2023/02/18 10:07:42;;;;;;;8.23;4.07;;;;;;;13.56;62.96;101803.25;4955268;28;125718;-71
2023/02/18 10:10:30;;;;;;;8.60;3.78;;;;;;;13.57;62.89;101810.34;4968295;28;110637;-72
2023/02/18 10:12:57;;;;;;;9.20;3.50;;;;;;;13.59;62.96;101819.13;4964892;28;110019;-68
2023/02/18 10:15:29;;;;;;;9.63;3.10;;;;;;;13.60;62.83;101805.75;4970458;28;124140;-71
2023/02/18 10:17:57;;;;;;;7.32;2.78;;;;;;;13.62;62.81;101803.03;4974458;28;123717;-71
2023/02/18 10:20:28;;;;;;;12.40;2.90;;;;;;;13.64;62.86;101817.13;4971326;28;109330;-71
2023/02/18 10:22:59;;;;;;;8.23;2.20;;;;;;;13.67;62.65;101811.66;4960961;28;109025;-71
2023/02/18 10:25:28;;;;;;;9.15;2.58;;;;;;;13.70;62.68;101827.50;5006040;28;123296;-72
2023/02/18 10:27:57;;;;;;;11.32;2.90;;;;;;;13.73;62.49;101822.06;4971032;28;124694;-71
2023/02/18 10:30:53;;;;;;;9.30;2.05;;;;;;;13.74;62.38;101849.56;4974353;28;109337;-72
2023/02/18 10:33:33;;;;;;;9.60;2.70;;;;;;;13.75;62.36;101825.53;4954543;28;109358;-72
2023/02/18 10:36:28;;;;;;;9.85;2.22;;;;;;;13.77;62.39;101847.63;4957027;28;122953;-72
2023/02/18 10:39:33;;;;;;;7.50;2.40;;;;;;;13.77;62.28;101847.63;4967603;28;124418;-72
2023/02/18 10:42:33;;;;;;;9.33;2.20;;;;;;;13.79;62.35;101853.75;4940776;28;109959;-72
2023/02/18 10:45:19;;;;;;;14.60;3.03;;;;;;;13.80;62.14;101850.16;4958161;28;108948;-72
2023/02/18 10:47:51;;;;;;;6.05;2.03;;;;;;;13.81;62.17;101851.03;4971810;28;125042;-72
2023/02/18 10:50:36;;;;;;;7.70;2.60;;;;;;;13.80;62.31;101847.47;4971726;28;124275;-70
2023/02/18 10:53:37;;;;;;;11.27;2.15;;;;;;;13.82;62.41;101850.09;4962827;28;109176;-72
2023/02/18 10:56:05;;;;;;;6.10;1.95;;;;;;;13.84;62.32;101850.88;4952613;28;108990;-69
2023/02/18 10:58:40;;;;;;;8.52;2.13;;;;;;;13.86;62.40;101859.66;4966462;28;124064;-70
2023/02/18 11:01:18;;;;;;;8.60;2.60;;;;;;;13.86;62.37;101853.50;4972531;28;123931;-70
2023/02/18 11:03:48;;;;;;;7.15;2.33;;;;;;;13.85;62.47;101857.09;4961311;28;110541;-69
2023/02/18 11:06:40;;;;;;;5.60;2.40;;;;;;;13.83;62.40;101860.69;4959622;28;110947;-71
2023/02/18 11:09:40;;;;;;;4.13;2.20;;;;;;;13.83;62.40;101859.81;4961110;28;123895;-71
2023/02/18 11:12:21;;;;;;;9.27;2.65;;;;;;;13.81;62.54;101862.53;4967506;28;123887;-71
2023/02/18 11:15:06;;;;;;;7.20;2.45;;;;;;;13.80;62.51;101866.13;4959804;28;109556;-70
2023/02/18 11:17:36;;;;;;;5.35;2.70;;;;;;;13.78;62.59;101875.97;4959287;28;109176;-70
2023/02/18 11:20:19;;;;;;;7.28;2.47;;;;;;;13.75;62.71;101862.81;4964074;28;124147;-70
2023/02/18 11:22:47;;;;;;;6.13;2.40;;;;;;;13.74;62.84;101861.06;4954630;28;123592;-70
2023/02/18 11:25:21;;;;;;;6.55;2.47;;;;;;;13.73;62.84;101858.47;4954367;28;109302;-70
2023/02/18 11:27:57;;;;;;;8.40;2.80;;;;;;;13.74;62.98;101855.75;4954075;28;108755;-70
2023/02/18 11:30:41;;;;;;;10.18;2.97;;;;;;;13.73;62.92;101864.66;4989371;28;124513;-69
2023/02/18 11:33:17;;;;;;;7.90;2.85;;;;;;;13.73;63.16;101864.66;4959652;28;124599;-70